Time;durP1;ratioP1;P1;durP2;ratioP2;P2;SDS_P1;SDS_P2;PMS_P1;PMS_P2;Temp;Humidity;BMP_temperature;BMP_pressure;BME280_temperature;BME280_humidity;BME280_pressure;Samples;Min_cycle;Max_cycle;Signal;HPM_P1;HPM_P2
2023/10/11 00:01:27;;;;;;;12.20;4.95;;;;;;;;;;5028941;28;20641;-72
2023/10/11 00:03:53;;;;;;;8.63;4.97;;;;;;;;;;5025291;28;20186;-68
2023/10/11 00:06:18;;;;;;;11.80;5.90;;;;;;;;;;5025668;28;20269;-72
2023/10/11 00:08:43;;;;;;;10.55;5.75;;;;;;;;;;5017426;28;20190;-71
2023/10/11 00:11:09;;;;;;;9.43;5.60;;;;;;;;;;5025717;28;20195;-71
2023/10/11 00:13:36;;;;;;;11.55;5.65;;;;;;;;;;5027643;28;20755;-72
2023/10/11 00:16:07;;;;;;;17.02;6.03;;;;;;;;;;5024745;28;20187;-69
2023/10/11 00:18:35;;;;;;;10.88;5.85;;;;;;;;;;5026640;28;20221;-72
2023/10/11 00:21:09;;;;;;;11.68;5.97;;;;;;;;;;4996802;28;20187;-72
2023/10/11 00:23:36;;;;;;;11.00;5.57;;;;;;;;;;5025196;28;20272;-71
2023/10/11 00:26:02;;;;;;;13.52;5.68;;;;;;;;;;5029444;28;20217;-70
2023/10/11 00:28:31;;;;;;;10.85;5.93;;;;;;;;;;5020461;28;20655;-71
2023/10/11 00:31:00;;;;;;;10.63;5.70;;;;;;;;;;5024726;28;20193;-71
2023/10/11 00:33:26;;;;;;;11.10;5.47;;;;;;;;;;5023557;28;20599;-70
2023/10/11 00:35:52;;;;;;;12.68;5.80;;;;;;;;;;5023090;28;20193;-71
2023/10/11 00:38:20;;;;;;;11.73;6.10;;;;;;;;;;5015022;28;20563;-72
2023/10/11 00:41:00;;;;;;;10.65;5.15;;;;;;;;;;5021840;28;20205;-68
2023/10/11 00:43:33;;;;;;;14.50;6.25;;;;;;;;;;5033570;28;20193;-70
2023/10/11 00:45:59;;;;;;;10.95;5.93;;;;;;;;;;5028143;28;20201;-71
2023/10/11 00:48:25;;;;;;;14.65;6.25;;;;;;;;;;5026099;28;20186;-71
2023/10/11 00:50:53;;;;;;;12.93;6.10;;;;;;;;;;5010095;28;20202;-70
2023/10/11 00:53:18;;;;;;;14.02;6.53;;;;;;;;;;5024326;28;20298;-70
2023/10/11 00:55:45;;;;;;;16.60;6.00;;;;;;;;;;5027255;28;20205;-71
2023/10/11 00:58:15;;;;;;;9.32;5.80;;;;;;;;;;5026122;28;20605;-72
2023/10/11 01:00:42;;;;;;;13.02;5.95;;;;;;;;;;5026851;28;20193;-67
2023/10/11 01:03:08;;;;;;;12.82;6.40;;;;;;;;;;5022988;28;20213;-71
2023/10/11 01:05:38;;;;;;;16.02;6.10;;;;;;;;;;5022608;28;20276;-72
2023/10/11 01:08:03;;;;;;;13.65;5.85;;;;;;;;;;5010343;28;20744;-72
2023/10/11 01:10:29;;;;;;;13.27;6.15;;;;;;;;;;5018102;28;20206;-72
2023/10/11 01:12:57;;;;;;;11.93;6.03;;;;;;;;;;5015608;28;20297;-72
2023/10/11 01:15:23;;;;;;;12.57;6.10;;;;;;;;;;5017494;28;20551;-71
2023/10/11 01:17:48;;;;;;;13.07;6.05;;;;;;;;;;5017814;28;20190;-71
2023/10/11 01:20:14;;;;;;;11.93;5.70;;;;;;;;;;5016853;28;20237;-71
2023/10/11 01:22:43;;;;;;;8.60;5.60;;;;;;;;;;5006811;28;20554;-69
2023/10/11 01:25:18;;;;;;;14.02;5.78;;;;;;;;;;5020207;28;20276;-69
2023/10/11 01:27:44;;;;;;;9.80;5.28;;;;;;;;;;5027148;28;20217;-70
2023/10/11 01:30:10;;;;;;;17.15;6.00;;;;;;;;;;5029646;28;20290;-71
2023/10/11 01:32:42;;;;;;;13.48;6.32;;;;;;;;;;5019755;28;20693;-73
2023/10/11 01:35:13;;;;;;;16.42;6.53;;;;;;;;;;5027642;28;20595;-72
2023/10/11 01:37:43;;;;;;;12.55;6.03;;;;;;;;;;5009992;28;20201;-73
2023/10/11 01:40:21;;;;;;;12.43;6.18;;;;;;;;;;5015461;28;20506;-72
2023/10/11 01:42:51;;;;;;;11.40;6.40;;;;;;;;;;5027985;28;20293;-71
2023/10/11 01:45:17;;;;;;;17.92;7.05;;;;;;;;;;5025140;28;20186;-69
2023/10/11 01:47:46;;;;;;;12.77;6.00;;;;;;;;;;5026284;28;20637;-71
2023/10/11 01:50:13;;;;;;;11.73;5.57;;;;;;;;;;5028259;28;20243;-70
2023/10/11 01:52:39;;;;;;;12.52;6.47;;;;;;;;;;5031959;28;20246;-71
2023/10/11 01:55:05;;;;;;;13.07;6.15;;;;;;;;;;5021120;28;20198;-72
2023/10/11 01:57:30;;;;;;;18.73;7.40;;;;;;;;;;5029320;28;20194;-70
2023/10/11 01:59:58;;;;;;;11.20;6.30;;;;;;;;;;5014565;28;20694;-72
2023/10/11 02:02:27;;;;;;;13.10;6.30;;;;;;;;;;5019339;28;20232;-71
2023/10/11 02:04:57;;;;;;;14.15;6.60;;;;;;;;;;5029741;28;20187;-70
2023/10/11 02:07:23;;;;;;;11.25;6.22;;;;;;;;;;5005102;28;20187;-71
2023/10/11 02:09:48;;;;;;;17.80;6.57;;;;;;;;;;5013054;28;20197;-72
2023/10/11 02:12:17;;;;;;;13.15;6.05;;;;;;;;;;5030166;28;20194;-73
2023/10/11 02:14:44;;;;;;;12.57;6.35;;;;;;;;;;5024402;28;20552;-72
2023/10/11 02:17:13;;;;;;;12.10;6.68;;;;;;;;;;5018284;28;20514;-71
2023/10/11 02:19:38;;;;;;;10.45;6.20;;;;;;;;;;5030845;28;20206;-68
2023/10/11 02:22:04;;;;;;;12.07;7.10;;;;;;;;;;5031436;28;20186;-70
2023/10/11 02:24:29;;;;;;;11.27;6.60;;;;;;;;;;5029385;28;20194;-71
2023/10/11 02:26:55;;;;;;;11.15;6.35;;;;;;;;;;5019793;28;20269;-69
2023/10/11 02:29:21;;;;;;;17.67;7.65;;;;;;;;;;5030170;28;20190;-71
2023/10/11 02:31:52;;;;;;;11.95;6.45;;;;;;;;;;5032866;28;20679;-72
2023/10/11 02:34:18;;;;;;;13.05;6.30;;;;;;;;;;5034475;28;20204;-72
2023/10/11 02:36:44;;;;;;;15.63;6.32;;;;;;;;;;5023942;28;20203;-72
2023/10/11 02:39:20;;;;;;;10.85;6.32;;;;;;;;;;5025249;28;20269;-72
2023/10/11 02:41:50;;;;;;;12.88;6.55;;;;;;;;;;5031302;28;20213;-69
2023/10/11 02:44:16;;;;;;;14.25;6.70;;;;;;;;;;5027647;28;20720;-70
2023/10/11 02:46:44;;;;;;;13.38;6.75;;;;;;;;;;5023155;28;20289;-71
2023/10/11 02:49:19;;;;;;;10.95;6.15;;;;;;;;;;5013481;28;20467;-72
2023/10/11 02:51:52;;;;;;;14.20;6.50;;;;;;;;;;5018368;28;20204;-72
2023/10/11 02:54:42;;;;;;;15.57;6.53;;;;;;;;;;5024641;28;20267;-72
2023/10/11 02:57:19;;;;;;;10.57;6.47;;;;;;;;;;5018524;28;20260;-72
2023/10/11 02:59:50;;;;;;;14.50;6.53;;;;;;;;;;5025035;28;20582;-71
2023/10/11 03:02:15;;;;;;;12.63;5.45;;;;;;;;;;5028037;28;20217;-72
2023/10/11 03:04:41;;;;;;;12.82;6.50;;;;;;;;;;5024584;28;20194;-71
2023/10/11 03:07:20;;;;;;;16.00;6.38;;;;;;;;;;5024260;28;20307;-67
2023/10/11 03:09:46;;;;;;;15.80;6.95;;;;;;;;;;5024264;28;20239;-71
2023/10/11 03:14:56;;;;;;;14.48;6.55;;;;;;;;;;5021220;28;20269;-69
2023/10/11 03:17:22;;;;;;;12.45;6.40;;;;;;;;;;5027513;28;20281;-72
2023/10/11 03:19:52;;;;;;;12.98;6.53;;;;;;;;;;5031368;28;20220;-73
2023/10/11 03:22:20;;;;;;;11.82;6.45;;;;;;;;;;5015400;28;20203;-72
2023/10/11 03:25:12;;;;;;;15.02;6.78;;;;;;;;;;5018590;28;20244;-70
2023/10/11 03:27:45;;;;;;;12.35;6.45;;;;;;;;;;5016896;28;20198;-72
2023/10/11 03:30:13;;;;;;;10.15;6.05;;;;;;;;;;5030417;28;20229;-72
2023/10/11 03:32:41;;;;;;;11.32;6.43;;;;;;;;;;5024501;28;20248;-71
2023/10/11 03:35:08;;;;;;;13.52;7.07;;;;;;;;;;5020395;28;20183;-71
2023/10/11 03:37:37;;;;;;;12.95;6.53;;;;;;;;;;5021391;28;20255;-72
2023/10/11 03:40:13;;;;;;;12.45;6.72;;;;;;;;;;5027495;28;20554;-68
2023/10/11 03:43:16;;;;;;;15.32;6.30;;;;;;;;;;5018052;28;20225;-70
2023/10/11 03:45:34;;;;;;;15.40;7.38;;;;;;;;;;5025541;28;20532;-72
2023/10/11 03:48:00;;;;;;;13.70;6.72;;;;;;;;;;5029213;28;20658;-69
2023/10/11 03:50:33;;;;;;;13.57;6.90;;;;;;;;;;5020121;28;20244;-72
2023/10/11 03:53:07;;;;;;;17.02;7.22;;;;;;;;;;5013230;28;20197;-70
2023/10/11 03:55:33;;;;;;;15.02;7.13;;;;;;;;;;5022395;28;20263;-69
2023/10/11 03:57:58;;;;;;;14.73;6.50;;;;;;;;;;5016049;28;20185;-70
2023/10/11 04:00:25;;;;;;;17.20;6.90;;;;;;;;;;5012018;28;20273;-71
2023/10/11 04:02:57;;;;;;;14.52;7.00;;;;;;;;;;5022616;28;20268;-69
2023/10/11 04:05:34;;;;;;;12.27;7.25;;;;;;;;;;5023275;28;20186;-71
2023/10/11 04:08:05;;;;;;;9.07;6.32;;;;;;;;;;5026588;28;20178;-71
2023/10/11 04:10:39;;;;;;;18.15;7.43;;;;;;;;;;5021520;28;20280;-72
2023/10/11 04:13:08;;;;;;;10.13;6.45;;;;;;;;;;5014450;28;20186;-73
2023/10/11 04:15:34;;;;;;;15.48;7.43;;;;;;;;;;5012980;28;20217;-72
2023/10/11 04:18:05;;;;;;;16.02;7.78;;;;;;;;;;5026745;28;20245;-72
2023/10/11 04:20:33;;;;;;;11.63;7.00;;;;;;;;;;5021810;28;20226;-71
2023/10/11 04:23:10;;;;;;;16.55;7.20;;;;;;;;;;5028856;28;20194;-73
2023/10/11 04:25:38;;;;;;;13.65;7.28;;;;;;;;;;5028429;28;20201;-71
2023/10/11 04:28:05;;;;;;;15.05;7.78;;;;;;;;;;5028486;28;20232;-69
2023/10/11 04:30:44;;;;;;;13.10;7.40;;;;;;;;;;5026733;28;20186;-71
2023/10/11 04:33:22;;;;;;;14.77;8.00;;;;;;;;;;5022897;28;20676;-72
2023/10/11 04:35:57;;;;;;;14.15;7.00;;;;;;;;;;5023709;28;20292;-72
2023/10/11 04:38:23;;;;;;;14.50;7.68;;;;;;;;;;5016360;28;20189;-72
2023/10/11 04:40:52;;;;;;;12.07;7.70;;;;;;;;;;5022130;28;20181;-70
2023/10/11 04:43:21;;;;;;;15.68;8.35;;;;;;;;;;5023481;28;20191;-69
2023/10/11 04:45:49;;;;;;;14.65;7.95;;;;;;;;;;5029108;28;20598;-72
2023/10/11 04:48:18;;;;;;;13.27;8.38;;;;;;;;;;5023388;28;20190;-71
2023/10/11 04:50:48;;;;;;;18.52;7.82;;;;;;;;;;5019054;28;20244;-72
2023/10/11 04:53:18;;;;;;;15.70;7.75;;;;;;;;;;5023065;28;20193;-72
2023/10/11 04:55:58;;;;;;;13.73;8.05;;;;;;;;;;5025784;28;20196;-72
2023/10/11 04:58:42;;;;;;;16.33;8.68;;;;;;;;;;5026830;28;20228;-73
2023/10/11 05:01:12;;;;;;;13.52;7.78;;;;;;;;;;5019764;28;20242;-73
2023/10/11 05:03:39;;;;;;;14.50;7.93;;;;;;;;;;5007681;28;20182;-71
2023/10/11 05:06:13;;;;;;;13.40;8.18;;;;;;;;;;5019121;28;20206;-71
2023/10/11 05:08:51;;;;;;;16.67;8.30;;;;;;;;;;5021027;28;20191;-73
2023/10/11 05:14:32;;;;;;;16.85;7.72;;;;;;;;;;5019422;28;20300;-73
2023/10/11 05:17:16;;;;;;;12.27;7.45;;;;;;;;;;5021654;28;20206;-70
2023/10/11 05:27:49;;;;;;;14.95;8.30;;;;;;;;;;5025257;28;20186;-71
2023/10/11 05:52:07;;;;;;;16.58;8.73;;;;;;;;;;4319995;28;10000796;-71
2023/10/11 05:54:34;;;;;;;11.25;8.32;;;;;;;;;;5011541;28;20186;-70
2023/10/11 05:57:03;;;;;;;14.57;9.10;;;;;;;;;;5025466;28;20273;-71
2023/10/11 05:59:32;;;;;;;15.77;9.02;;;;;;;;;;5017446;28;20227;-72
2023/10/11 06:01:59;;;;;;;18.90;8.35;;;;;;;;;;5026817;28;20724;-73
2023/10/11 06:04:25;;;;;;;16.55;8.63;;;;;;;;;;5023920;28;20615;-72
2023/10/11 06:06:57;;;;;;;15.35;8.35;;;;;;;;;;5022818;28;20210;-71
2023/10/11 06:09:26;;;;;;;20.02;8.30;;;;;;;;;;5015358;28;20187;-69
2023/10/11 06:11:52;;;;;;;17.38;9.27;;;;;;;;;;5029999;28;20277;-72
2023/10/11 06:14:19;;;;;;;17.75;8.98;;;;;;;;;;5022902;28;20313;-72
2023/10/11 06:16:49;;;;;;;21.30;8.75;;;;;;;;;;5016533;28;20274;-71
2023/10/11 06:19:18;;;;;;;17.85;9.85;;;;;;;;;;5030787;28;20214;-71
2023/10/11 06:22:09;;;;;;;17.25;8.93;;;;;;;;;;5032847;28;20636;-70
2023/10/11 06:24:38;;;;;;;15.52;9.80;;;;;;;;;;5030376;28;20190;-68
2023/10/11 06:28:09;;;;;;;18.88;9.80;;;;;;;;;;5029403;28;20209;-72
2023/10/11 06:29:57;;;;;;;18.42;8.75;;;;;;;;;;5016870;28;20190;-69
2023/10/11 06:32:24;;;;;;;18.88;9.98;;;;;;;;;;5026429;28;20221;-72
2023/10/11 06:34:50;;;;;;;15.43;9.45;;;;;;;;;;5022328;28;20566;-73
2023/10/11 06:37:18;;;;;;;16.63;9.43;;;;;;;;;;5028366;28;20511;-72
2023/10/11 06:42:14;;;;;;;15.45;9.02;;;;;;;;;;5030809;28;20602;-73
2023/10/11 06:44:57;;;;;;;17.45;9.88;;;;;;;;;;5022699;28;20191;-72
2023/10/11 06:47:24;;;;;;;20.70;9.35;;;;;;;;;;5019809;28;20189;-74
2023/10/11 06:49:54;;;;;;;15.25;9.45;;;;;;;;;;5027109;28;20182;-72
2023/10/11 06:52:25;;;;;;;15.05;9.35;;;;;;;;;;5029003;28;20200;-72
2023/10/11 06:55:39;;;;;;;16.27;9.70;;;;;;;;;;5025447;28;20229;-70
2023/10/11 06:57:51;;;;;;;19.33;10.68;;;;;;;;;;5026196;28;20202;-72
2023/10/11 07:00:22;;;;;;;18.20;10.20;;;;;;;;;;5022197;28;20332;-72
2023/10/11 07:03:21;;;;;;;17.45;10.38;;;;;;;;;;5029269;28;20218;-72
2023/10/11 07:05:49;;;;;;;19.75;9.77;;;;;;;;;;5029149;28;20264;-67
2023/10/11 07:08:18;;;;;;;19.60;10.60;;;;;;;;;;5030814;28;20194;-72
2023/10/11 07:11:10;;;;;;;21.20;10.10;;;;;;;;;;5028367;28;20720;-72
2023/10/11 07:16:27;;;;;;;22.27;11.38;;;;;;;;;;5023188;28;20194;-72
2023/10/11 07:18:57;;;;;;;22.05;11.02;;;;;;;;;;5025244;28;20638;-72
2023/10/11 07:21:41;;;;;;;17.63;9.85;;;;;;;;;;5030473;28;20549;-72
2023/10/11 07:24:40;;;;;;;20.05;11.15;;;;;;;;;;5032256;28;20210;-73
2023/10/11 07:27:09;;;;;;;21.55;9.88;;;;;;;;;;5027598;28;20260;-73
2023/10/11 07:29:45;;;;;;;18.90;10.95;;;;;;;;;;5011507;28;20253;-73
2023/10/11 07:32:11;;;;;;;20.02;10.98;;;;;;;;;;5028293;28;20190;-70
2023/10/11 07:34:38;;;;;;;19.20;11.02;;;;;;;;;;5029626;28;20288;-68
2023/10/11 07:37:05;;;;;;;18.90;10.90;;;;;;;;;;5026445;28;20377;-72
2023/10/11 07:39:33;;;;;;;16.35;10.25;;;;;;;;;;5019322;28;20288;-71
2023/10/11 07:42:07;;;;;;;17.00;10.38;;;;;;;;;;5027878;28;20213;-71
2023/10/11 07:44:39;;;;;;;19.83;11.50;;;;;;;;;;5023917;28;20186;-70
2023/10/11 07:47:15;;;;;;;22.33;11.27;;;;;;;;;;5019557;28;20717;-72
2023/10/11 07:49:41;;;;;;;18.50;10.80;;;;;;;;;;5013428;28;20229;-71
2023/10/11 07:52:13;;;;;;;24.83;11.40;;;;;;;;;;5020222;28;20224;-68
2023/10/11 07:54:41;;;;;;;18.40;10.55;;;;;;;;;;5027959;28;20185;-71
2023/10/11 07:57:13;;;;;;;19.27;11.77;;;;;;;;;;5018227;28;20499;-71
2023/10/11 07:59:39;;;;;;;20.02;11.48;;;;;;;;;;5025826;28;20237;-71
2023/10/11 08:02:09;;;;;;;21.73;11.82;;;;;;;;;;5024887;28;20214;-71
2023/10/11 08:04:46;;;;;;;24.25;11.75;;;;;;;;;;5021539;28;20657;-72
2023/10/11 08:07:16;;;;;;;20.40;11.35;;;;;;;;;;5026604;28;20186;-66
2023/10/11 08:09:45;;;;;;;23.13;11.95;;;;;;;;;;5026090;28;20510;-72
2023/10/11 08:12:15;;;;;;;23.90;12.40;;;;;;;;;;5008060;28;20561;-70
2023/10/11 08:14:44;;;;;;;20.60;12.43;;;;;;;;;;5022701;28;20276;-68
2023/10/11 08:17:15;;;;;;;23.63;12.52;;;;;;;;;;5021551;28;20687;-71
2023/10/11 08:19:44;;;;;;;21.63;11.65;;;;;;;;;;5017441;28;20268;-71
2023/10/11 08:22:11;;;;;;;23.92;12.98;;;;;;;;;;5021428;28;20210;-71
2023/10/11 08:24:46;;;;;;;23.35;12.43;;;;;;;;;;5016664;28;20229;-67
2023/10/11 08:27:12;;;;;;;21.00;13.00;;;;;;;;;;5028990;28;20630;-71
2023/10/11 08:29:42;;;;;;;22.70;12.48;;;;;;;;;;5030091;28;20626;-72
2023/10/11 08:32:12;;;;;;;24.00;13.10;;;;;;;;;;5018614;28;20189;-70
2023/10/11 08:34:39;;;;;;;26.15;13.25;;;;;;;;;;5024744;28;20187;-71
2023/10/11 08:37:07;;;;;;;27.77;13.93;;;;;;;;;;5023740;28;20182;-66
2023/10/11 08:39:35;;;;;;;24.35;13.13;;;;;;;;;;5024052;28;20285;-66
2023/10/11 08:42:11;;;;;;;19.80;12.45;;;;;;;;;;5019317;28;20229;-73
2023/10/11 08:44:36;;;;;;;22.92;13.52;;;;;;;;;;5023526;28;20244;-72
2023/10/11 08:47:06;;;;;;;24.10;12.65;;;;;;;;;;5019230;28;20198;-73
2023/10/11 08:49:41;;;;;;;24.83;12.52;;;;;;;;;;5022050;28;20200;-72
2023/10/11 08:52:10;;;;;;;24.58;14.23;;;;;;;;;;5009560;28;20685;-71
2023/10/11 08:54:36;;;;;;;22.33;12.88;;;;;;;;;;5026902;28;20731;-71
2023/10/11 08:57:03;;;;;;;25.35;13.93;;;;;;;;;;5020992;28;20205;-68
2023/10/11 08:59:31;;;;;;;22.70;13.60;;;;;;;;;;5028452;28;20251;-66
2023/10/11 09:01:59;;;;;;;26.27;13.55;;;;;;;;;;5019716;28;20221;-71
2023/10/11 09:04:28;;;;;;;27.83;15.48;;;;;;;;;;5028023;28;20281;-71
2023/10/11 09:07:00;;;;;;;29.27;13.70;;;;;;;;;;5032146;28;20205;-73
2023/10/11 09:09:39;;;;;;;29.02;14.10;;;;;;;;;;5019446;28;20549;-70
2023/10/11 09:12:23;;;;;;;27.55;15.43;;;;;;;;;;5022811;28;20269;-72
2023/10/11 09:14:58;;;;;;;30.92;15.32;;;;;;;;;;5029586;28;20182;-72
2023/10/11 09:17:25;;;;;;;24.60;14.63;;;;;;;;;;5026369;28;20668;-70
2023/10/11 09:19:53;;;;;;;22.90;14.98;;;;;;;;;;5028918;28;20626;-71
2023/10/11 09:22:18;;;;;;;29.15;14.95;;;;;;;;;;5015709;28;20198;-69
2023/10/11 09:24:44;;;;;;;28.88;15.27;;;;;;;;;;5017048;28;20193;-68
2023/10/11 09:29:49;;;;;;;26.88;16.42;;;;;;;;;;5027236;28;20218;-71
2023/10/11 09:32:19;;;;;;;26.20;15.93;;;;;;;;;;5027630;28;20190;-71
2023/10/11 09:34:46;;;;;;;22.77;14.63;;;;;;;;;;5013355;28;20191;-70
2023/10/11 09:37:12;;;;;;;28.83;15.27;;;;;;;;;;5019940;28;20285;-71
2023/10/11 09:39:41;;;;;;;26.60;15.65;;;;;;;;;;5022710;28;20285;-71
2023/10/11 09:42:12;;;;;;;27.92;15.88;;;;;;;;;;5028327;28;20261;-67
2023/10/11 09:44:39;;;;;;;25.33;15.07;;;;;;;;;;5030436;28;20218;-71
2023/10/11 09:47:06;;;;;;;28.70;15.95;;;;;;;;;;5025695;28;20182;-71
2023/10/11 09:49:41;;;;;;;28.67;15.73;;;;;;;;;;5027995;28;20201;-72
2023/10/11 09:52:16;;;;;;;30.30;16.00;;;;;;;;;;5016984;28;20634;-71
2023/10/11 09:54:42;;;;;;;29.27;16.42;;;;;;;;;;5028775;28;20189;-69
2023/10/11 09:57:38;;;;;;;26.38;16.67;;;;;;;;;;5027545;28;20269;-70
2023/10/11 10:00:26;;;;;;;27.67;15.60;;;;;;;;;;5012232;28;20226;-71
2023/10/11 10:02:52;;;;;;;30.02;16.45;;;;;;;;;;4999529;28;20194;-71
2023/10/11 10:05:22;;;;;;;25.88;16.38;;;;;;;;;;5028198;28;20560;-71
2023/10/11 10:07:50;;;;;;;28.98;16.77;;;;;;;;;;5030057;28;20185;-71
2023/10/11 10:10:25;;;;;;;29.45;16.40;;;;;;;;;;5028936;28;20183;-73
2023/10/11 10:13:09;;;;;;;31.70;17.27;;;;;;;;;;5015239;28;20650;-72
2023/10/11 10:15:47;;;;;;;30.02;16.92;;;;;;;;;;5011070;28;20199;-71
2023/10/11 10:18:20;;;;;;;28.33;17.15;;;;;;;;;;5012567;28;20252;-70
2023/10/11 10:20:56;;;;;;;32.35;18.10;;;;;;;;;;5025822;28;20292;-72
2023/10/11 10:23:22;;;;;;;32.97;17.52;;;;;;;;;;5021506;28;20541;-71
2023/10/11 10:26:06;;;;;;;33.40;18.20;;;;;;;;;;5036479;28;20274;-67
2023/10/11 10:28:34;;;;;;;31.40;18.15;;;;;;;;;;5028002;28;20210;-71
2023/10/11 10:31:11;;;;;;;29.65;18.13;;;;;;;;;;5027627;28;20198;-72
2023/10/11 10:33:37;;;;;;;32.45;17.83;;;;;;;;;;5024235;28;20267;-69
2023/10/11 10:36:19;;;;;;;31.50;18.35;;;;;;;;;;5020231;28;20186;-73
2023/10/11 10:41:39;;;;;;;31.27;18.45;;;;;;;;;;5030983;28;20475;-71
2023/10/11 10:44:10;;;;;;;29.35;18.60;;;;;;;;;;5033093;28;20198;-67
2023/10/11 10:46:50;;;;;;;28.13;17.60;;;;;;;;;;5020907;28;20195;-68
2023/10/11 10:49:20;;;;;;;32.78;19.15;;;;;;;;;;5026566;28;20197;-69
2023/10/11 10:51:48;;;;;;;32.47;18.42;;;;;;;;;;5028166;28;20190;-71
2023/10/11 10:54:17;;;;;;;29.05;19.85;;;;;;;;;;5029833;28;20186;-71
2023/10/11 10:56:58;;;;;;;28.58;19.27;;;;;;;;;;5029164;28;20360;-73
2023/10/11 10:59:26;;;;;;;37.88;20.05;;;;;;;;;;5030690;28;20241;-72
2023/10/11 11:01:53;;;;;;;39.67;19.73;;;;;;;;;;5024819;28;20202;-72
2023/10/11 11:04:28;;;;;;;31.30;20.45;;;;;;;;;;5023612;28;20190;-68
2023/10/11 11:06:55;;;;;;;35.47;19.58;;;;;;;;;;5029335;28;20189;-72
2023/10/11 11:09:27;;;;;;;40.08;20.38;;;;;;;;;;5029026;28;20186;-71
2023/10/11 11:11:55;;;;;;;35.15;20.33;;;;;;;;;;5028883;28;20190;-71
2023/10/11 11:14:23;;;;;;;35.72;20.58;;;;;;;;;;5007146;28;20194;-71
2023/10/11 11:16:59;;;;;;;35.90;21.55;;;;;;;;;;5016722;28;20541;-72
2023/10/11 11:19:27;;;;;;;34.47;21.13;;;;;;;;;;5025018;28;20264;-68
2023/10/11 11:22:12;;;;;;;32.17;21.67;;;;;;;;;;5009536;28;20195;-71
2023/10/11 11:24:41;;;;;;;35.15;21.35;;;;;;;;;;5017951;28;20205;-70
2023/10/11 11:27:28;;;;;;;37.25;21.25;;;;;;;;;;5028690;28;20184;-70
2023/10/11 11:29:54;;;;;;;46.72;23.27;;;;;;;;;;5019815;28;20228;-71
2023/10/11 11:32:39;;;;;;;34.95;22.42;;;;;;;;;;5027631;28;20245;-68
2023/10/11 11:35:10;;;;;;;35.15;21.98;;;;;;;;;;5020508;28;20189;-68
2023/10/11 11:37:39;;;;;;;47.95;23.83;;;;;;;;;;5029129;28;20273;-72
2023/10/11 11:40:26;;;;;;;44.60;23.13;;;;;;;;;;5030972;28;20653;-70
2023/10/11 11:42:51;;;;;;;39.65;21.67;;;;;;;;;;5018719;28;20189;-74
2023/10/11 11:45:18;;;;;;;43.33;21.75;;;;;;;;;;5018898;28;20490;-70
2023/10/11 11:47:55;;;;;;;33.22;20.50;;;;;;;;;;5018108;28;20191;-70
2023/10/11 11:50:24;;;;;;;48.67;20.83;;;;;;;;;;5011196;28;20289;-71
2023/10/11 11:52:50;;;;;;;30.13;19.02;;;;;;;;;;5024517;28;20185;-69
2023/10/11 11:55:20;;;;;;;29.92;18.95;;;;;;;;;;5034120;28;20190;-69
2023/10/11 11:57:47;;;;;;;37.03;20.20;;;;;;;;;;5014470;28;20186;-71
2023/10/11 12:02:52;;;;;;;37.42;19.58;;;;;;;;;;5025847;28;20198;-71
2023/10/11 12:05:17;;;;;;;32.47;19.52;;;;;;;;;;5023724;28;20309;-72
2023/10/11 12:07:43;;;;;;;30.77;18.00;;;;;;;;;;5020998;28;20286;-71
2023/10/11 12:10:23;;;;;;;35.92;18.48;;;;;;;;;;5011387;28;20292;-67
2023/10/11 12:18:37;;;;;;;35.08;18.98;;;;;;;;;;5084541;27;20524;-66
2023/10/11 12:21:10;;;;;;;34.70;19.02;;;;;;;;;;5081261;28;20280;-71
2023/10/11 12:23:37;;;;;;;33.65;18.15;;;;;;;;;;5075466;28;20199;-71
2023/10/11 12:26:04;;;;;;;30.35;18.30;;;;;;;;;;5084443;28;20250;-67
2023/10/11 12:28:29;;;;;;;26.05;18.38;;;;;;;;;;5082114;28;20675;-68
2023/10/11 12:31:00;;;;;;;34.38;18.45;;;;;;;;;;5079704;28;20231;-71
2023/10/11 12:33:27;;;;;;;34.65;18.27;;;;;;;;;;5069391;28;20555;-71
2023/10/11 12:35:52;;;;;;;32.63;18.13;;;;;;;;;;5080681;28;20192;-69
2023/10/11 12:38:18;;;;;;;29.55;17.35;;;;;;;;;;5075143;28;20298;-71
2023/10/11 12:40:44;;;;;;;35.80;18.25;;;;;;;;;;5098313;28;20647;-72
2023/10/11 12:43:10;;;;;;;32.30;17.77;;;;;;;;;;5071948;28;20271;-71
2023/10/11 12:45:36;;;;;;;27.88;17.05;;;;;;;;;;5081378;28;20713;-73
2023/10/11 12:48:06;;;;;;;29.67;16.73;;;;;;;;;;5081555;28;20262;-73
2023/10/11 12:50:37;;;;;;;32.15;17.58;;;;;;;;;;5086142;28;20271;-70
2023/10/11 12:53:13;;;;;;;29.00;16.33;;;;;;;;;;5086950;28;20191;-72
2023/10/11 12:55:41;;;;;;;34.88;17.38;;;;;;;;;;5085593;28;20196;-71
2023/10/11 12:58:13;;;;;;;30.20;16.35;;;;;;;;;;5084357;28;20258;-72
2023/10/11 13:00:53;;;;;;;28.45;16.15;;;;;;;;;;5057684;28;20184;-71
2023/10/11 13:03:26;;;;;;;34.13;16.77;;;;;;;;;;5053396;28;20181;-73
2023/10/11 13:05:52;;;;;;;34.97;15.25;;;;;;;;;;5098217;28;20181;-72
2023/10/11 13:08:24;;;;;;;25.25;14.70;;;;;;;;;;5074048;28;20552;-72
2023/10/11 13:10:50;;;;;;;33.95;15.10;;;;;;;;;;5067675;28;20196;-69
2023/10/11 13:13:17;;;;;;;32.75;14.93;;;;;;;;;;5075111;28;20188;-69
2023/10/11 13:15:59;;;;;;;30.80;13.27;;;;;;;;;;5057565;28;20181;-72
2023/10/11 13:18:29;;;;;;;25.77;12.88;;;;;;;;;;5078886;28;20221;-68
2023/10/11 13:20:55;;;;;;;24.92;13.13;;;;;;;;;;5060994;28;20294;-71
2023/10/11 13:23:28;;;;;;;25.58;13.48;;;;;;;;;;5046140;28;20210;-72
2023/10/11 13:25:59;;;;;;;21.90;13.00;;;;;;;;;;5063449;28;20664;-73
2023/10/11 13:28:28;;;;;;;21.13;12.18;;;;;;;;;;5059485;28;20471;-73
2023/10/11 13:31:01;;;;;;;21.42;11.95;;;;;;;;;;5045091;28;20276;-67
2023/10/11 13:33:28;;;;;;;20.63;10.90;;;;;;;;;;5048029;28;20606;-71
2023/10/11 13:35:54;;;;;;;24.30;12.15;;;;;;;;;;5056337;28;20182;-68
2023/10/11 13:38:20;;;;;;;23.42;12.23;;;;;;;;;;5057311;28;20221;-69
2023/10/11 13:40:46;;;;;;;20.33;11.98;;;;;;;;;;5040772;28;20198;-67
2023/10/11 13:43:12;;;;;;;22.88;12.15;;;;;;;;;;5058156;28;20654;-71
2023/10/11 13:45:40;;;;;;;25.85;13.55;;;;;;;;;;5055002;28;20190;-67
2023/10/11 13:48:11;;;;;;;23.10;11.75;;;;;;;;;;5063106;28;20618;-70
2023/10/11 13:50:49;;;;;;;25.20;11.68;;;;;;;;;;5062373;28;20263;-68
2023/10/11 13:53:15;;;;;;;21.42;12.40;;;;;;;;;;5050664;28;20558;-71
2023/10/11 13:55:41;;;;;;;22.85;11.00;;;;;;;;;;5044980;28;20546;-67
2023/10/11 13:58:09;;;;;;;22.83;11.55;;;;;;;;;;5054407;28;20215;-68
2023/10/11 14:03:39;;;;;;;19.02;10.75;;;;;;;;;;5031881;28;20204;-68
2023/10/11 14:08:49;;;;;;;22.80;9.75;;;;;;;;;;5048666;28;20537;-71
2023/10/11 14:11:17;;;;;;;26.33;10.48;;;;;;;;;;5048907;28;20188;-70
2023/10/11 14:13:52;;;;;;;22.92;10.73;;;;;;;;;;5088869;28;20190;-70
2023/10/11 14:16:21;;;;;;;18.40;10.05;;;;;;;;;;5053241;28;20655;-71
2023/10/11 14:18:49;;;;;;;25.45;11.00;;;;;;;;;;5039154;28;20653;-67
2023/10/11 14:21:19;;;;;;;20.52;10.48;;;;;;;;;;5041272;28;20190;-70
2023/10/11 14:23:45;;;;;;;21.35;10.00;;;;;;;;;;5050088;28;20293;-66
2023/10/11 14:26:12;;;;;;;17.27;9.70;;;;;;;;;;5048140;28;20200;-67
2023/10/11 14:28:38;;;;;;;20.27;11.20;;;;;;;;;;5035221;28;20198;-69
2023/10/11 14:31:03;;;;;;;21.80;10.85;;;;;;;;;;5059037;28;20292;-71
2023/10/11 14:33:29;;;;;;;27.27;11.40;;;;;;;;;;5052072;28;20201;-69
2023/10/11 14:35:54;;;;;;;24.77;11.95;;;;;;;;;;5042162;28;20186;-66
2023/10/11 14:38:20;;;;;;;19.30;11.13;;;;;;;;;;5081834;28;20609;-68
2023/10/11 14:40:48;;;;;;;23.67;11.77;;;;;;;;;;5046427;28;20204;-70
2023/10/11 14:43:17;;;;;;;22.70;11.65;;;;;;;;;;5066594;28;20193;-70
2023/10/11 14:45:51;;;;;;;22.98;12.00;;;;;;;;;;5042497;28;20285;-66
2023/10/11 14:48:17;;;;;;;22.80;12.27;;;;;;;;;;5043562;28;20264;-68
2023/10/11 14:50:42;;;;;;;20.83;12.02;;;;;;;;;;5050380;28;20289;-69
2023/10/11 14:53:13;;;;;;;27.92;14.15;;;;;;;;;;5052236;28;20189;-68
2023/10/11 14:55:39;;;;;;;24.05;14.05;;;;;;;;;;5068856;28;20247;-69
2023/10/11 14:58:05;;;;;;;23.17;14.13;;;;;;;;;;5053414;28;20223;-68
2023/10/11 15:00:33;;;;;;;26.10;14.18;;;;;;;;;;5050033;28;20244;-70
2023/10/11 15:02:59;;;;;;;27.52;14.60;;;;;;;;;;5047434;28;20251;-68
2023/10/11 15:05:29;;;;;;;25.65;15.07;;;;;;;;;;5047687;28;20177;-70
2023/10/11 15:07:55;;;;;;;29.33;16.52;;;;;;;;;;5042097;28;20188;-69
2023/10/11 15:10:24;;;;;;;28.42;16.30;;;;;;;;;;5062044;28;20190;-69
2023/10/11 15:12:50;;;;;;;29.65;18.30;;;;;;;;;;5066073;28;20186;-69
2023/10/11 15:15:19;;;;;;;31.33;18.27;;;;;;;;;;5043287;28;20200;-71
2023/10/11 15:17:47;;;;;;;24.30;16.25;;;;;;;;;;5039883;28;20546;-68
2023/10/11 15:20:13;;;;;;;29.70;18.58;;;;;;;;;;5075217;28;20239;-68
2023/10/11 15:22:40;;;;;;;34.95;19.45;;;;;;;;;;5048457;28;20211;-70
2023/10/11 15:25:08;;;;;;;29.90;20.30;;;;;;;;;;5041154;28;20212;-67
2023/10/11 15:27:34;;;;;;;37.33;21.20;;;;;;;;;;5034169;28;20197;-68
2023/10/11 15:29:59;;;;;;;34.67;21.13;;;;;;;;;;5052190;28;20193;-70
2023/10/11 15:32:25;;;;;;;33.38;20.42;;;;;;;;;;5051579;28;20454;-67
2023/10/11 15:34:54;;;;;;;38.83;22.20;;;;;;;;;;5050241;28;20206;-71
2023/10/11 15:37:20;;;;;;;37.58;21.75;;;;;;;;;;5070040;28;20216;-68
2023/10/11 15:39:45;;;;;;;36.13;22.10;;;;;;;;;;5088680;28;20184;-71
2023/10/11 15:42:14;;;;;;;33.75;21.83;;;;;;;;;;5050492;28;20186;-71